createdAt,value
2018-04-23T00:01:26.788Z,59.50
2018-04-23T00:03:55.185Z,59.80
2018-04-23T00:06:23.609Z,59.90
2018-04-23T00:08:51.266Z,59.90
2018-04-23T00:11:18.896Z,60.10
2018-04-23T00:13:46.563Z,60.20
2018-04-23T00:16:14.966Z,60.40
2018-04-23T00:18:43.396Z,60.70
2018-04-23T00:21:11.038Z,60.70
2018-04-23T00:23:38.674Z,60.80
2018-04-23T00:26:06.741Z,60.90
2018-04-23T00:28:35.108Z,61.90
2018-04-23T00:31:02.757Z,61.80
2018-04-23T00:33:30.394Z,61.80
2018-04-23T00:35:58.025Z,61.50
2018-04-23T00:38:25.667Z,61.50
2018-04-23T00:40:53.304Z,61.30
2018-04-23T00:43:20.994Z,61.90
2018-04-23T00:45:48.665Z,61.50
2018-04-23T00:48:16.313Z,61.20
2018-04-23T00:50:43.945Z,61.40
2018-04-23T00:53:36.066Z,61.90
2018-04-23T00:56:04.498Z,62.10
2018-04-23T00:58:32.125Z,62.00
2018-04-23T01:00:59.761Z,60.90
2018-04-23T01:03:28.183Z,58.90
2018-04-23T01:05:55.844Z,58.90
2018-04-23T01:08:24.252Z,57.70
2018-04-23T01:10:52.725Z,57.40
2018-04-23T01:13:20.373Z,57.40
2018-04-23T01:15:48.054Z,57.00
2018-04-23T01:18:15.672Z,57.00
2018-04-23T01:20:43.361Z,57.40
2018-04-23T01:23:11.007Z,58.30
2018-04-23T01:25:38.640Z,58.90
2018-04-23T01:28:06.317Z,59.50
2018-04-23T01:30:33.943Z,59.90
2018-04-23T01:33:02.417Z,60.20
2018-04-23T01:35:30.061Z,60.10
2018-04-23T01:37:57.766Z,59.50
2018-04-23T01:40:25.416Z,58.90
2018-04-23T01:42:53.825Z,58.00
2018-04-23T01:45:22.221Z,57.80
2018-04-23T01:47:50.637Z,57.50
2018-04-23T01:50:18.293Z,58.00
2018-04-23T01:52:45.955Z,57.40
2018-04-23T01:55:13.585Z,57.30
2018-04-23T01:57:41.990Z,57.20
2018-04-23T02:00:10.426Z,57.10
2018-04-23T02:02:38.073Z,57.10
2018-04-23T02:05:05.712Z,57.10
2018-04-23T02:07:33.365Z,57.10
2018-04-23T02:10:00.997Z,57.90
2018-04-23T02:12:28.656Z,58.60
2018-04-23T02:14:56.290Z,59.10
2018-04-23T02:17:23.949Z,59.90
2018-04-23T02:19:51.578Z,60.30
2018-04-23T02:22:20.009Z,61.70
2018-04-23T02:24:47.634Z,61.10
2018-04-23T02:27:15.284Z,61.80
2018-04-23T02:29:42.917Z,62.70
2018-04-23T02:32:10.571Z,62.50
2018-04-23T02:34:38.236Z,63.00
2018-04-23T02:37:05.862Z,63.20
2018-04-23T02:39:33.559Z,63.50
2018-04-23T02:42:01.189Z,63.90
2018-04-23T02:44:29.622Z,64.00
2018-04-23T02:46:57.240Z,63.90
2018-04-23T02:49:24.898Z,64.10
2018-04-23T02:51:52.531Z,64.30
2018-04-23T02:54:20.206Z,64.00
2018-04-23T02:56:47.889Z,64.80
2018-04-23T02:59:15.521Z,63.90
2018-04-23T03:01:43.971Z,64.20
2018-04-23T03:04:11.700Z,64.30
2018-04-23T03:06:39.347Z,64.50
2018-04-23T03:09:07.822Z,65.00
2018-04-23T03:11:35.467Z,65.00
2018-04-23T03:14:03.107Z,65.10
2018-04-23T03:16:30.769Z,65.40
2018-04-23T03:18:59.230Z,66.00
2018-04-23T03:21:26.850Z,66.00
2018-04-23T03:23:54.501Z,66.00
2018-04-23T03:26:22.114Z,65.80
2018-04-23T03:28:49.774Z,66.00
2018-04-23T03:31:17.471Z,66.20
2018-04-23T03:33:45.182Z,66.20
2018-04-23T03:36:12.984Z,66.00
2018-04-23T03:38:41.528Z,66.20
2018-04-23T03:41:09.353Z,66.20
2018-04-23T03:43:37.117Z,66.40
2018-04-23T03:46:04.917Z,66.50
2018-04-23T03:48:32.705Z,66.60
2018-04-23T03:51:00.501Z,66.40
2018-04-23T03:53:28.305Z,66.10
2018-04-23T03:55:56.048Z,66.40
2018-04-23T03:58:23.859Z,66.60
2018-04-23T04:00:51.609Z,66.60
2018-04-23T04:03:19.404Z,66.60
2018-04-23T04:05:47.201Z,66.20
2018-04-23T04:08:14.967Z,66.00
2018-04-23T04:10:43.512Z,66.20
2018-04-23T04:13:23.147Z,66.00
2018-04-23T04:16:03.600Z,66.10
2018-04-23T04:18:43.105Z,66.00
2018-04-23T04:21:11.074Z,66.20
2018-04-23T04:23:38.844Z,66.30
2018-04-23T04:26:07.589Z,65.80
2018-04-23T04:28:36.123Z,66.50
2018-04-23T04:31:03.968Z,66.50
2018-04-23T04:33:31.748Z,66.40
2018-04-23T04:35:59.484Z,66.50
2018-04-23T04:38:27.228Z,66.60
2018-04-23T04:40:54.952Z,66.70
2018-04-23T04:43:23.399Z,66.90
2018-04-23T04:45:51.117Z,66.80
2018-04-23T04:48:18.809Z,66.90
2018-04-23T04:50:46.544Z,67.10
2018-04-23T04:53:14.304Z,67.50
2018-04-23T04:55:42.764Z,67.80
2018-04-23T04:58:10.492Z,67.80
2018-04-23T05:00:38.192Z,67.90
2018-04-23T05:03:06.684Z,67.90
2018-04-23T05:05:34.360Z,67.90
2018-04-23T05:08:02.072Z,68.20
2018-04-23T05:10:30.519Z,68.30
2018-04-23T05:12:58.228Z,68.30
2018-04-23T05:15:26.708Z,67.40
2018-04-23T05:17:54.396Z,67.40
2018-04-23T05:20:22.116Z,66.90
2018-04-23T05:22:49.796Z,67.20
2018-04-23T05:25:17.520Z,67.20
2018-04-23T05:27:45.245Z,66.30
2018-04-23T05:30:12.980Z,65.30
2018-04-23T05:32:40.710Z,64.20
2018-04-23T05:35:08.419Z,63.30
2018-04-23T05:37:36.216Z,63.70
2018-04-23T05:40:03.939Z,64.30
2018-04-23T05:42:31.753Z,64.90
2018-04-23T05:45:00.191Z,65.80
2018-04-23T05:47:27.959Z,65.80
2018-04-23T05:49:56.433Z,65.70
2018-04-23T05:52:24.125Z,65.70
2018-04-23T05:54:52.625Z,65.90
2018-04-23T05:57:21.091Z,65.70
2018-04-23T05:59:48.815Z,65.60
2018-04-23T06:02:16.503Z,65.20
2018-04-23T06:04:44.220Z,65.20
2018-04-23T06:07:12.704Z,65.10
2018-04-23T06:09:40.380Z,65.10
2018-04-23T06:12:08.100Z,65.00
2018-04-23T06:14:35.780Z,65.70
2018-04-23T06:17:07.528Z,64.70
2018-04-23T06:19:42.384Z,64.50
2018-04-23T06:22:10.196Z,64.00
2018-04-23T06:24:38.068Z,63.90
2018-04-23T06:27:06.077Z,63.70
2018-04-23T06:29:33.967Z,62.50
2018-04-23T06:32:01.744Z,62.60
2018-04-23T06:34:29.671Z,62.70
2018-04-23T06:37:07.393Z,61.50
2018-04-23T06:39:35.232Z,60.30
2018-04-23T06:42:04.013Z,59.00
2018-04-23T06:44:32.010Z,59.00
2018-04-23T06:47:04.185Z,58.30
2018-04-23T06:49:32.160Z,58.10
2018-04-23T06:52:00.161Z,58.00
2018-04-23T06:54:28.131Z,57.80
2018-04-23T06:56:56.119Z,57.40
2018-04-23T06:59:24.199Z,56.90
2018-04-23T07:01:52.176Z,56.50
2018-04-23T07:04:20.179Z,56.20
2018-04-23T07:06:57.326Z,55.90
2018-04-23T07:09:25.998Z,55.60
2018-04-23T07:11:54.262Z,55.30
2018-04-23T07:14:29.430Z,54.90
2018-04-23T07:16:58.787Z,54.70
2018-04-23T07:19:26.743Z,54.70
2018-04-23T07:21:54.719Z,54.30
2018-04-23T07:24:22.679Z,54.30
2018-04-23T07:26:50.671Z,54.00
2018-04-23T07:29:19.397Z,53.40
2018-04-23T07:31:47.419Z,53.40
2018-04-23T07:34:15.420Z,53.10
2018-04-23T07:36:44.135Z,53.00
2018-04-23T07:39:12.186Z,53.00
2018-04-23T07:41:40.959Z,53.00
2018-04-23T07:44:09.365Z,52.80
2018-04-23T07:46:37.303Z,53.00
2018-04-23T07:49:05.312Z,53.10
2018-04-23T07:51:33.272Z,52.90
2018-04-23T07:54:01.274Z,52.70
2018-04-23T07:56:29.287Z,52.70
2018-04-23T07:58:57.281Z,52.90
2018-04-23T08:01:25.249Z,53.00
2018-04-23T08:03:53.238Z,53.60
2018-04-23T08:06:21.189Z,53.20
2018-04-23T08:08:49.956Z,53.20
2018-04-23T08:11:17.959Z,53.10
2018-04-23T08:13:45.916Z,53.40
2018-04-23T08:16:13.935Z,53.90
2018-04-23T08:18:41.894Z,54.20
2018-04-23T08:21:11.539Z,54.30
2018-04-23T08:23:41.088Z,54.30
2018-04-23T08:26:09.873Z,54.00
2018-04-23T08:28:38.602Z,53.60
2018-04-23T08:31:06.605Z,53.50
2018-04-23T08:33:34.654Z,53.70
2018-04-23T08:36:02.677Z,54.10
2018-04-23T08:38:30.778Z,53.50
2018-04-23T08:40:58.797Z,52.80
2018-04-23T08:43:26.578Z,52.80
2018-04-23T08:45:54.592Z,52.20
2018-04-23T08:48:23.391Z,51.30
2018-04-23T08:50:51.445Z,51.10
2018-04-23T08:53:20.231Z,50.80
2018-04-23T08:55:49.083Z,50.50
2018-04-23T08:58:17.111Z,50.40
2018-04-23T09:00:45.401Z,50.10
2018-04-23T09:03:13.476Z,49.70
2018-04-23T09:05:41.488Z,49.40
2018-04-23T09:08:09.609Z,49.70
2018-04-23T09:10:37.652Z,50.10
2018-04-23T09:13:05.744Z,50.20
2018-04-23T09:15:33.787Z,50.10
2018-04-23T09:18:01.881Z,50.30
2018-04-23T09:20:29.959Z,50.60
2018-04-23T09:22:58.003Z,50.70
2018-04-23T09:25:26.097Z,50.90
2018-04-23T09:27:54.917Z,52.00
2018-04-23T09:30:22.999Z,51.40
2018-04-23T09:32:50.960Z,51.40
2018-04-23T09:35:19.069Z,51.60
2018-04-23T09:37:47.118Z,52.10
2018-04-23T09:40:15.186Z,52.50
2018-04-23T09:42:43.196Z,52.80
2018-04-23T09:45:11.440Z,52.70
2018-04-23T09:47:39.467Z,52.90
2018-04-23T09:50:07.543Z,53.40
2018-04-23T09:52:35.630Z,53.90
2018-04-23T09:55:03.740Z,54.30
2018-04-23T09:57:32.627Z,55.90
2018-04-23T10:00:00.642Z,55.80
2018-04-23T10:02:28.751Z,56.20
2018-04-23T10:04:58.028Z,58.70
2018-04-23T10:07:26.121Z,58.70
2018-04-23T10:09:54.161Z,61.50
2018-04-23T10:12:22.998Z,67.80
2018-04-23T10:14:51.099Z,67.30
2018-04-23T10:17:19.144Z,69.40
2018-04-23T10:19:47.221Z,71.50
2018-04-23T10:22:15.999Z,74.50
2018-04-23T10:24:44.977Z,74.50
2018-04-23T10:27:13.504Z,75.40
2018-04-23T10:29:41.720Z,76.50
2018-04-23T10:32:09.772Z,77.50
2018-04-23T10:34:37.894Z,78.20
2018-04-23T10:37:06.283Z,78.90
2018-04-23T10:39:34.401Z,79.40
2018-04-23T10:42:03.346Z,80.50
2018-04-23T10:47:44.599Z,80.90
2018-04-23T10:50:13.869Z,81.90
2018-04-23T10:52:43.024Z,81.80
2018-04-23T10:55:11.159Z,82.50
2018-04-23T10:57:39.962Z,83.50
2018-04-23T11:00:08.077Z,83.50
2018-04-23T11:02:36.266Z,83.90
2018-04-23T11:08:17.291Z,84.20
2018-04-23T11:10:45.474Z,84.10
2018-04-23T11:13:14.523Z,84.00
2018-04-23T11:15:42.726Z,84.20
2018-04-23T11:18:10.780Z,84.70
2018-04-23T11:20:38.810Z,84.70
2018-04-23T11:23:07.673Z,84.80
2018-04-23T11:25:35.735Z,84.70
2018-04-23T11:28:04.608Z,85.00
2018-04-23T11:30:32.626Z,84.90
2018-04-23T11:33:00.697Z,85.00
2018-04-23T11:35:28.695Z,85.00
2018-04-23T11:37:56.752Z,85.70
2018-04-23T11:40:24.795Z,85.80
2018-04-23T11:42:52.787Z,85.80
2018-04-23T11:45:20.912Z,85.80
2018-04-23T11:47:48.929Z,86.90
2018-04-23T11:50:17.026Z,86.20
2018-04-23T11:52:45.805Z,85.90
2018-04-23T11:55:13.965Z,85.90
2018-04-23T11:58:01.426Z,86.00
2018-04-23T12:00:29.503Z,86.10
2018-04-23T12:02:57.583Z,86.40
2018-04-23T12:05:25.629Z,86.70
2018-04-23T12:07:53.819Z,86.80
2018-04-23T12:10:21.864Z,86.90
2018-04-23T12:12:49.947Z,86.80
2018-04-23T12:15:17.996Z,86.10
2018-04-23T12:17:46.095Z,86.20
2018-04-23T12:20:14.128Z,86.00
2018-04-23T12:22:42.946Z,85.30
2018-04-23T12:25:12.304Z,84.00
2018-04-23T12:27:40.346Z,83.90
2018-04-23T12:30:08.408Z,83.00
2018-04-23T12:32:36.464Z,81.70
2018-04-23T12:35:04.744Z,80.20
2018-04-23T12:37:32.725Z,78.90
2018-04-23T12:40:01.718Z,78.30
2018-04-23T12:42:29.797Z,77.80
2018-04-23T12:44:57.819Z,76.00
2018-04-23T12:47:25.937Z,74.90
2018-04-23T12:49:53.974Z,73.90
2018-04-23T12:52:23.031Z,73.20
2018-04-23T12:54:51.826Z,73.20
2018-04-23T12:57:19.830Z,73.20
2018-04-23T12:59:48.060Z,73.10
2018-04-23T13:02:16.269Z,72.90
2018-04-23T13:04:44.320Z,72.50
2018-04-23T13:07:12.452Z,72.10
2018-04-23T13:09:40.517Z,71.50
2018-04-23T13:12:08.570Z,71.00
2018-04-23T13:14:36.607Z,70.20
2018-04-23T13:17:05.489Z,69.20
2018-04-23T13:19:33.521Z,69.10
2018-04-23T13:22:01.720Z,68.60
2018-04-23T13:24:30.495Z,67.70
2018-04-23T13:26:59.349Z,66.80
2018-04-23T13:29:27.344Z,66.60
2018-04-23T13:31:56.454Z,64.80
2018-04-23T13:34:41.835Z,64.80
2018-04-23T13:37:09.954Z,63.90
2018-04-23T13:39:38.057Z,63.30
2018-04-23T13:42:06.132Z,63.00
2018-04-23T13:44:34.227Z,63.00
2018-04-23T13:47:02.275Z,62.30
2018-04-23T13:49:30.346Z,61.90
2018-04-23T13:51:58.372Z,62.40
2018-04-23T13:54:26.432Z,62.60
2018-04-23T13:56:55.318Z,63.30
2018-04-23T13:59:24.069Z,63.30
2018-04-23T14:01:52.163Z,63.90
2018-04-23T14:04:20.229Z,64.10
2018-04-23T14:06:48.321Z,64.00
2018-04-23T14:09:16.275Z,64.20
2018-04-23T14:11:44.203Z,64.50
2018-04-23T14:14:12.244Z,64.80
2018-04-23T14:16:40.349Z,64.90
2018-04-23T14:19:08.862Z,65.60
2018-04-23T14:21:36.996Z,65.60
2018-04-23T14:24:05.105Z,65.70
2018-04-23T14:26:33.137Z,65.60
2018-04-23T14:29:02.023Z,65.60
2018-04-23T14:31:30.603Z,65.40
2018-04-23T14:33:58.721Z,65.50
2018-04-23T14:36:26.845Z,65.70
2018-04-23T14:38:55.666Z,65.80
2018-04-23T14:41:23.784Z,65.80
2018-04-23T14:43:52.951Z,65.70
2018-04-23T14:46:21.754Z,65.70
2018-04-23T14:48:49.677Z,65.70
2018-04-23T14:51:17.779Z,65.70
2018-04-23T14:53:46.361Z,65.80
2018-04-23T14:56:14.233Z,65.80
2018-04-23T14:58:42.122Z,65.90
2018-04-23T15:01:09.948Z,65.40
2018-04-23T15:03:37.761Z,64.90
2018-04-23T15:06:05.571Z,64.70
2018-04-23T15:08:33.381Z,64.10
2018-04-23T15:11:01.883Z,63.70
2018-04-23T15:13:30.921Z,63.30
2018-04-23T15:15:58.947Z,63.00
2018-04-23T15:18:27.847Z,62.30
2018-04-23T15:20:55.869Z,62.30
2018-04-23T15:23:24.030Z,62.00
2018-04-23T15:25:52.082Z,62.20
2018-04-23T15:28:20.186Z,62.50
2018-04-23T15:30:48.163Z,62.70
2018-04-23T15:33:17.013Z,63.10
2018-04-23T15:35:45.045Z,63.10
2018-04-23T15:38:13.179Z,63.20
2018-04-23T15:40:41.261Z,63.50
2018-04-23T15:43:09.336Z,63.90
2018-04-23T15:45:37.423Z,64.10
2018-04-23T15:48:07.005Z,63.40
2018-04-23T15:50:35.226Z,63.40
2018-04-23T15:53:04.087Z,63.60
2018-04-23T15:55:33.751Z,63.40
2018-04-23T15:58:02.841Z,63.40
2018-04-23T16:00:31.540Z,64.40
2018-04-23T16:03:00.861Z,63.60
2018-04-23T16:05:28.979Z,63.60
2018-04-23T16:07:59.464Z,63.70
2018-04-23T16:10:28.617Z,63.80
2018-04-23T16:12:56.802Z,63.90
2018-04-23T16:15:24.961Z,63.80
2018-04-23T16:17:53.107Z,64.20
2018-04-23T16:20:21.174Z,64.20
2018-04-23T16:22:49.224Z,64.20
2018-04-23T16:25:18.022Z,63.90
2018-04-23T16:27:46.481Z,63.80
2018-04-23T16:30:14.593Z,63.40
2018-04-23T16:32:43.244Z,63.50
2018-04-23T16:35:11.570Z,63.70
2018-04-23T16:37:40.693Z,63.80
2018-04-23T16:40:09.027Z,63.80
2018-04-23T16:42:37.142Z,63.80
2018-04-23T16:45:06.146Z,63.40
2018-04-23T16:47:34.504Z,63.40
2018-04-23T16:50:02.939Z,63.50
2018-04-23T16:52:31.766Z,63.80
2018-04-23T16:55:01.551Z,64.20
2018-04-23T16:57:29.976Z,64.20
2018-04-23T16:59:59.265Z,64.20
2018-04-23T17:02:27.415Z,64.20
2018-04-23T17:04:55.811Z,64.50
2018-04-23T17:07:23.752Z,64.90
2018-04-23T17:09:51.963Z,65.30
2018-04-23T17:12:20.902Z,65.50
2018-04-23T17:14:49.050Z,65.40
2018-04-23T17:17:17.962Z,66.30
2018-04-23T17:19:46.975Z,66.60
2018-04-23T17:22:15.489Z,66.50
2018-04-23T17:24:43.752Z,66.70
2018-04-23T17:27:12.044Z,66.90
2018-04-23T17:29:40.071Z,67.20
2018-04-23T17:32:08.242Z,67.70
2018-04-23T17:34:36.408Z,67.90
2018-04-23T17:37:04.619Z,68.30
2018-04-23T17:39:32.947Z,68.90
2018-04-23T17:42:02.008Z,69.30
2018-04-23T17:44:30.213Z,69.30
2018-04-23T17:46:58.875Z,69.50
2018-04-23T17:49:27.484Z,69.80
2018-04-23T17:51:56.025Z,69.60
2018-04-23T17:54:24.977Z,69.20
2018-04-23T17:56:53.102Z,69.80
2018-04-23T17:59:21.396Z,68.90
2018-04-23T18:01:50.804Z,68.80
2018-04-23T18:04:18.937Z,68.70
2018-04-23T18:06:46.827Z,68.70
2018-04-23T18:09:15.830Z,68.70
2018-04-23T18:11:43.535Z,68.70
2018-04-23T18:14:11.568Z,68.70
2018-04-23T18:16:40.323Z,68.70
2018-04-23T18:19:08.603Z,68.60
2018-04-23T18:21:36.705Z,68.00
2018-04-23T18:24:04.733Z,67.30
2018-04-23T18:29:34.247Z,66.10
2018-04-23T18:38:02.091Z,64.30
2018-04-23T18:40:30.420Z,63.30
2018-04-23T18:42:59.259Z,63.10
2018-04-23T18:45:27.321Z,63.00
2018-04-23T18:47:55.458Z,63.00
2018-04-23T18:50:23.512Z,63.50
2018-04-23T18:52:51.580Z,64.10
2018-04-23T18:55:19.694Z,65.00
2018-04-23T18:57:47.714Z,65.70
2018-04-23T19:00:15.832Z,66.10
2018-04-23T19:02:44.614Z,66.40
2018-04-23T19:05:12.694Z,66.30
2018-04-23T19:07:40.720Z,66.60
2018-04-23T19:10:08.802Z,67.00
2018-04-23T19:12:36.949Z,67.00
2018-04-23T19:15:05.075Z,67.10
2018-04-23T19:17:34.014Z,68.10
2018-04-23T19:20:02.216Z,68.10
2018-04-23T19:22:31.339Z,69.00
2018-04-23T19:24:59.724Z,69.00
2018-04-23T19:27:27.855Z,69.30
2018-04-23T19:29:55.902Z,69.50
2018-04-23T19:32:24.034Z,69.90
2018-04-23T19:34:52.093Z,70.20
2018-04-23T19:37:20.167Z,70.40
2018-04-23T19:39:48.251Z,70.10
2018-04-23T19:42:17.136Z,69.50
2018-04-23T19:44:45.988Z,69.10
2018-04-23T19:47:13.989Z,69.20
2018-04-23T19:49:42.119Z,68.90
2018-04-23T19:52:10.168Z,68.50
2018-04-23T19:57:49.611Z,67.80
2018-04-23T20:00:17.707Z,67.40
2018-04-23T20:02:45.783Z,67.30
2018-04-23T20:05:13.841Z,67.20
2018-04-23T20:07:42.940Z,67.30
2018-04-23T20:10:12.363Z,67.50
2018-04-23T20:12:40.891Z,67.50
2018-04-23T20:15:08.891Z,67.70
2018-04-23T20:17:37.739Z,68.60
2018-04-23T20:20:05.949Z,68.40
2018-04-23T20:22:33.976Z,68.80
2018-04-23T20:25:02.081Z,69.40
2018-04-23T20:27:30.515Z,69.90
2018-04-23T20:29:58.616Z,70.50
2018-04-23T20:32:27.051Z,71.90
2018-04-23T20:34:55.174Z,71.60
2018-04-23T20:37:24.023Z,72.00
2018-04-23T20:39:52.983Z,72.70
2018-04-23T20:42:21.834Z,73.30
2018-04-23T20:44:49.951Z,73.30
2018-04-23T20:47:18.132Z,73.60
2018-04-23T20:49:46.790Z,74.10
2018-04-23T20:52:14.967Z,74.60
2018-04-23T20:54:43.020Z,75.20
2018-04-23T20:57:11.129Z,75.60
2018-04-23T20:59:39.236Z,76.00
2018-04-23T21:02:07.328Z,76.30
2018-04-23T21:04:35.420Z,76.70
2018-04-23T21:07:03.450Z,76.90
2018-04-23T21:09:32.500Z,77.40
2018-04-23T21:12:00.413Z,77.70
2018-04-23T21:14:29.324Z,77.80
2018-04-23T21:16:57.864Z,78.10
2018-04-23T21:19:26.441Z,78.50
2018-04-23T21:21:54.470Z,78.70
2018-04-23T21:24:22.659Z,78.90
2018-04-23T21:26:50.692Z,78.90
2018-04-23T21:29:18.922Z,79.70
2018-04-23T21:31:47.678Z,80.30
2018-04-23T21:34:15.744Z,80.10
2018-04-23T21:36:43.776Z,81.20
2018-04-23T21:39:11.876Z,80.70
2018-04-23T21:41:40.090Z,80.90
2018-04-23T21:44:08.144Z,81.80
2018-04-23T21:46:36.215Z,81.40
2018-04-23T21:49:04.260Z,81.60
2018-04-23T21:51:32.355Z,81.70
2018-04-23T21:54:00.349Z,81.90
2018-04-23T21:56:28.434Z,82.20
2018-04-23T21:58:56.514Z,82.40
2018-04-23T22:01:25.321Z,82.70
2018-04-23T22:03:53.480Z,82.70
2018-04-23T22:06:22.796Z,82.70
2018-04-23T22:11:42.312Z,83.10
2018-04-23T22:14:10.302Z,83.20
2018-04-23T22:16:38.187Z,83.60
2018-04-23T22:19:06.116Z,83.70
2018-04-23T22:21:34.823Z,84.10
2018-04-23T22:24:02.735Z,84.10
2018-04-23T22:26:30.634Z,84.30
2018-04-23T22:28:59.295Z,84.60
2018-04-23T22:31:27.213Z,84.60
2018-04-23T22:33:55.076Z,84.80
2018-04-23T22:36:23.003Z,84.80
2018-04-23T22:38:51.725Z,84.80
2018-04-23T22:41:21.392Z,84.80
2018-04-23T22:43:49.311Z,85.10
2018-04-23T22:46:17.974Z,84.90
2018-04-23T22:48:45.922Z,85.40
2018-04-23T22:51:14.562Z,85.70
2018-04-23T22:53:42.503Z,85.70
2018-04-23T22:56:11.148Z,86.00
2018-04-23T22:58:39.082Z,86.00
2018-04-23T23:01:06.919Z,86.20
2018-04-23T23:03:35.651Z,86.20
2018-04-23T23:06:03.558Z,86.20
2018-04-23T23:08:31.575Z,86.30
2018-04-23T23:10:59.534Z,86.30
2018-04-23T23:13:27.349Z,86.30
2018-04-23T23:15:55.258Z,86.40
2018-04-23T23:18:23.120Z,86.50
2018-04-23T23:20:51.821Z,86.60
2018-04-23T23:23:19.723Z,86.70
2018-04-23T23:25:47.590Z,86.80
2018-04-23T23:28:26.202Z,86.90
2018-04-23T23:30:54.122Z,86.90
2018-04-23T23:33:22.039Z,86.90
2018-04-23T23:35:49.880Z,86.90
2018-04-23T23:38:17.767Z,87.10
2018-04-23T23:40:45.597Z,87.10
2018-04-23T23:43:13.496Z,87.40
2018-04-23T23:45:41.370Z,87.50
2018-04-23T23:48:09.273Z,87.60
2018-04-23T23:50:37.989Z,87.70
2018-04-23T23:53:05.922Z,87.70
2018-04-23T23:55:34.611Z,87.70
2018-04-23T23:58:03.559Z,87.70
